Time;durP1;ratioP1;P1;durP2;ratioP2;P2;SDS_P1;SDS_P2;PMS_P1;PMS_P2;Temp;Humidity;BMP_temperature;BMP_pressure;BME280_temperature;BME280_humidity;BME280_pressure;Samples;Min_cycle;Max_cycle;Signal;HPM_P1;HPM_P2
2022/04/17 00:01:50;;;;;;;23.38;15.93;;;11.90;74.50;;;;;;4919748;29;20059;-71
2022/04/17 00:04:18;;;;;;;24.63;16.15;;;11.90;74.60;;;;;;4944738;29;20055;-71
2022/04/17 00:06:46;;;;;;;24.23;15.95;;;11.90;74.60;;;;;;4941517;29;20740;-71
2022/04/17 00:09:13;;;;;;;26.13;16.45;;;11.90;74.60;;;;;;4950879;28;20058;-72
2022/04/17 00:11:42;;;;;;;20.05;15.57;;;11.90;74.60;;;;;;4946463;29;20064;-71
2022/04/17 00:14:10;;;;;;;20.30;16.27;;;11.90;74.60;;;;;;4925478;29;20043;-72
2022/04/17 00:16:42;;;;;;;21.45;15.05;;;11.90;74.50;;;;;;4945602;29;20047;-71
2022/04/17 00:19:10;;;;;;;23.17;16.45;;;11.90;74.50;;;;;;4959054;28;20532;-72
2022/04/17 00:21:38;;;;;;;20.30;15.57;;;11.80;74.50;;;;;;4946874;28;20051;-72
2022/04/17 00:24:08;;;;;;;23.48;16.52;;;11.80;74.50;;;;;;4963693;28;20501;-72
2022/04/17 00:26:36;;;;;;;25.23;15.77;;;11.80;74.50;;;;;;4939981;29;20054;-71
2022/04/17 00:29:04;;;;;;;21.90;16.17;;;11.70;74.60;;;;;;4946550;29;20047;-74
2022/04/17 00:31:31;;;;;;;21.30;15.55;;;11.70;74.70;;;;;;4919966;29;20047;-72
2022/04/17 00:33:59;;;;;;;24.27;17.05;;;11.70;74.70;;;;;;4925598;29;20051;-72
2022/04/17 00:36:27;;;;;;;21.23;16.08;;;11.70;74.70;;;;;;4942850;28;20047;-72
2022/04/17 00:38:54;;;;;;;22.88;16.00;;;11.60;74.70;;;;;;4936116;29;20047;-72
2022/04/17 00:41:22;;;;;;;24.42;17.13;;;11.60;74.80;;;;;;4930158;29;20055;-72
2022/04/17 00:43:50;;;;;;;22.35;16.45;;;11.60;74.80;;;;;;4947821;29;20077;-73
2022/04/17 00:46:17;;;;;;;25.30;16.60;;;11.50;74.80;;;;;;4949195;29;20039;-72
2022/04/17 00:48:45;;;;;;;21.88;16.20;;;11.50;74.90;;;;;;4948269;29;20520;-72
2022/04/17 00:51:13;;;;;;;24.92;16.40;;;11.50;74.90;;;;;;4950708;28;20047;-71
2022/04/17 00:53:43;;;;;;;24.60;17.95;;;11.40;74.90;;;;;;4927082;29;20051;-71
2022/04/17 00:56:11;;;;;;;25.67;17.83;;;11.40;74.90;;;;;;4938195;29;20047;-71
2022/04/17 00:58:39;;;;;;;24.05;17.80;;;11.30;75.00;;;;;;4940045;29;20062;-71
2022/04/17 01:01:07;;;;;;;23.83;17.30;;;11.30;75.10;;;;;;4928027;29;20518;-70
2022/04/17 01:03:35;;;;;;;25.48;18.45;;;11.30;75.20;;;;;;4936394;29;20039;-71
2022/04/17 01:06:03;;;;;;;27.02;18.17;;;11.30;75.20;;;;;;4920348;29;20052;-70
2022/04/17 01:08:31;;;;;;;28.23;18.45;;;11.20;75.20;;;;;;4930789;29;20494;-70
2022/04/17 01:10:59;;;;;;;26.58;18.70;;;11.20;75.30;;;;;;4917842;29;20046;-71
2022/04/17 01:13:27;;;;;;;30.88;18.80;;;11.10;75.40;;;;;;4947764;29;20378;-70
2022/04/17 01:15:58;;;;;;;25.55;18.65;;;11.10;75.50;;;;;;4946511;29;20060;-70
2022/04/17 01:18:26;;;;;;;27.83;19.20;;;11.00;75.60;;;;;;4954006;28;20054;-71
2022/04/17 01:20:54;;;;;;;28.38;18.80;;;11.00;75.70;;;;;;4937644;29;20051;-71
2022/04/17 01:28:55;;;;;;;31.23;20.92;;;10.80;76.00;;;;;;4940329;29;20429;-71
2022/04/17 01:31:27;;;;;;;27.30;19.55;;;10.80;76.10;;;;;;4923593;29;20043;-71
2022/04/17 01:33:55;;;;;;;29.05;20.63;;;10.80;76.30;;;;;;4940950;29;20078;-71
2022/04/17 01:36:22;;;;;;;31.08;21.10;;;10.80;76.40;;;;;;4945022;29;20047;-71
2022/04/17 01:38:50;;;;;;;28.95;20.92;;;10.70;76.50;;;;;;4949188;29;20039;-72
2022/04/17 01:41:18;;;;;;;31.17;21.77;;;10.70;76.60;;;;;;4936178;29;20051;-71
2022/04/17 01:43:46;;;;;;;31.15;21.17;;;10.70;76.60;;;;;;4939480;29;20059;-70
2022/04/17 01:46:13;;;;;;;30.73;21.50;;;10.60;76.70;;;;;;4912767;29;20052;-70
2022/04/17 01:48:41;;;;;;;33.47;22.05;;;10.60;76.90;;;;;;4941028;29;20043;-71
2022/04/17 01:51:09;;;;;;;33.70;23.17;;;10.50;77.00;;;;;;4947507;29;20070;-70
2022/04/17 01:53:37;;;;;;;34.97;22.75;;;10.50;77.10;;;;;;4945371;29;20051;-70
2022/04/17 01:56:04;;;;;;;34.15;23.23;;;10.50;77.30;;;;;;4947368;29;20067;-70
2022/04/17 01:58:32;;;;;;;37.33;24.05;;;10.40;77.40;;;;;;4935109;29;20050;-70
2022/04/17 02:00:59;;;;;;;36.90;24.20;;;10.40;77.50;;;;;;4944469;29;20047;-70
2022/04/17 02:03:27;;;;;;;33.03;24.02;;;10.40;77.60;;;;;;4931494;29;20051;-71
2022/04/17 02:05:55;;;;;;;35.33;24.70;;;10.30;77.70;;;;;;4936523;29;20070;-70
2022/04/17 02:08:23;;;;;;;36.17;24.10;;;10.30;77.80;;;;;;4923861;29;20054;-70
2022/04/17 02:10:51;;;;;;;35.00;24.10;;;10.30;77.90;;;;;;4943130;28;20051;-71
2022/04/17 02:13:18;;;;;;;36.92;24.48;;;10.30;78.00;;;;;;4946005;28;20043;-70
2022/04/17 02:15:49;;;;;;;36.60;24.88;;;10.20;78.10;;;;;;4953506;28;20058;-71
2022/04/17 02:18:17;;;;;;;36.42;25.20;;;10.20;78.20;;;;;;4942718;29;20059;-71
2022/04/17 02:20:45;;;;;;;35.40;24.90;;;10.10;78.30;;;;;;4936070;29;20051;-71
2022/04/17 02:23:14;;;;;;;36.17;24.60;;;10.00;78.50;;;;;;4948167;29;20043;-71
2022/04/17 02:25:41;;;;;;;37.95;24.88;;;10.00;78.60;;;;;;4945785;29;20066;-71
2022/04/17 02:28:09;;;;;;;39.28;25.20;;;9.90;78.80;;;;;;4945087;28;20043;-71
2022/04/17 02:30:37;;;;;;;37.42;25.45;;;9.90;78.80;;;;;;4939225;29;20048;-71
2022/04/17 02:33:05;;;;;;;37.03;25.67;;;9.80;78.90;;;;;;4940402;29;20055;-71
2022/04/17 02:35:32;;;;;;;37.65;25.33;;;9.80;79.10;;;;;;4948228;29;20073;-70
2022/04/17 02:38:00;;;;;;;44.30;25.50;;;9.70;79.20;;;;;;4943804;29;20050;-71
2022/04/17 02:40:28;;;;;;;37.63;25.45;;;9.80;79.30;;;;;;4947983;29;20053;-71
2022/04/17 02:42:55;;;;;;;40.55;26.73;;;9.70;79.40;;;;;;4906060;29;20528;-70
2022/04/17 02:45:23;;;;;;;37.10;26.27;;;9.70;79.50;;;;;;4925652;29;20047;-69
2022/04/17 02:47:51;;;;;;;39.88;26.30;;;9.60;79.60;;;;;;4945624;29;20039;-70
2022/04/17 02:50:20;;;;;;;36.95;25.52;;;9.60;79.70;;;;;;4945260;29;20409;-70
2022/04/17 02:52:48;;;;;;;41.25;25.63;;;9.60;79.80;;;;;;4936283;29;20051;-70
2022/04/17 02:55:15;;;;;;;40.22;27.10;;;9.50;79.90;;;;;;4949179;29;20043;-71
2022/04/17 02:57:43;;;;;;;40.40;26.25;;;9.50;80.00;;;;;;4925852;29;20055;-70
2022/04/17 03:00:11;;;;;;;40.55;27.42;;;9.50;80.00;;;;;;4918259;29;20052;-71
2022/04/17 03:05:36;;;;;;;43.28;27.13;;;9.40;80.20;;;;;;4935734;29;20058;-71
2022/04/17 03:08:13;;;;;;;41.63;26.52;;;9.40;80.20;;;;;;4936998;29;20052;-71
2022/04/17 03:10:46;;;;;;;39.63;26.35;;;9.30;80.30;;;;;;4932497;29;20047;-70
2022/04/17 03:13:14;;;;;;;;;;;9.30;80.30;;;;;;4917036;29;20051;-70
2022/04/17 03:15:41;;;;;;;40.05;26.15;;;9.30;80.30;;;;;;4934548;29;19939;-70
2022/04/17 03:18:10;;;;;;;40.85;26.25;;;9.30;80.30;;;;;;4936687;29;20048;-71
2022/04/17 03:20:38;;;;;;;38.50;26.42;;;9.30;80.40;;;;;;4938032;29;20491;-71
2022/04/17 03:23:05;;;;;;;42.78;27.80;;;9.30;80.50;;;;;;4947977;29;20055;-71
2022/04/17 03:25:33;;;;;;;41.03;27.65;;;9.30;80.60;;;;;;4946844;29;20052;-71
2022/04/17 03:28:01;;;;;;;42.42;27.98;;;9.20;80.70;;;;;;4951165;29;20059;-71
2022/04/17 03:30:28;;;;;;;39.38;27.42;;;9.10;80.80;;;;;;4953957;29;20055;-71
2022/04/17 03:32:57;;;;;;;39.72;27.00;;;9.10;80.90;;;;;;4950752;28;20043;-71
2022/04/17 03:35:25;;;;;;;44.80;27.92;;;9.10;80.90;;;;;;4937706;29;20063;-71
2022/04/17 03:37:53;;;;;;;42.15;27.73;;;9.00;81.00;;;;;;4956467;28;20413;-71
2022/04/17 03:40:21;;;;;;;39.83;27.33;;;9.00;81.10;;;;;;4942185;29;20050;-71
2022/04/17 03:42:49;;;;;;;39.15;27.52;;;9.00;81.20;;;;;;4955736;28;20074;-71
2022/04/17 03:45:17;;;;;;;43.22;27.25;;;8.90;81.30;;;;;;4938316;29;20058;-71
2022/04/17 03:47:45;;;;;;;39.63;27.40;;;8.80;81.30;;;;;;4950522;28;20035;-71
2022/04/17 03:50:13;;;;;;;40.30;27.40;;;8.80;81.40;;;;;;4938389;29;20159;-71
2022/04/17 03:52:45;;;;;;;42.13;27.27;;;8.80;81.50;;;;;;4950075;29;20051;-71
2022/04/17 03:55:13;;;;;;;43.38;27.83;;;8.80;81.50;;;;;;4948259;29;20625;-71
2022/04/17 03:57:41;;;;;;;40.30;27.83;;;8.80;81.50;;;;;;4939180;29;20047;-71
2022/04/17 04:00:13;;;;;;;38.67;26.80;;;8.80;81.60;;;;;;4931267;29;20047;-71
2022/04/17 04:02:42;;;;;;;43.53;28.10;;;8.80;81.70;;;;;;4944141;29;20065;-71
2022/04/17 04:05:11;;;;;;;44.97;27.13;;;8.70;81.70;;;;;;4932689;29;20046;-71
2022/04/17 04:07:39;;;;;;;42.58;27.08;;;8.70;81.80;;;;;;4929133;29;20071;-71
2022/04/17 04:10:09;;;;;;;40.90;28.42;;;8.60;81.90;;;;;;4945170;29;20066;-71
2022/04/17 04:12:37;;;;;;;42.15;28.10;;;8.60;82.00;;;;;;4927572;29;20054;-71
2022/04/17 04:15:06;;;;;;;50.78;29.60;;;8.50;82.00;;;;;;4921087;29;20410;-71
2022/04/17 04:17:34;;;;;;;43.63;28.50;;;8.50;82.10;;;;;;4936236;29;20062;-71
2022/04/17 04:20:04;;;;;;;44.20;28.60;;;8.40;82.10;;;;;;4923975;29;20047;-71
2022/04/17 04:22:31;;;;;;;44.15;28.75;;;8.30;82.20;;;;;;4933637;29;20050;-71
2022/04/17 04:24:59;;;;;;;42.10;27.98;;;8.30;82.30;;;;;;4944011;29;20048;-72
2022/04/17 04:30:13;;;;;;;41.97;27.75;;;8.30;82.40;;;;;;4934067;29;20047;-71
2022/04/17 04:32:52;;;;;;;44.08;27.67;;;8.30;82.40;;;;;;4935506;29;20413;-71
2022/04/17 04:35:21;;;;;;;42.88;28.33;;;8.30;82.40;;;;;;4953522;28;20379;-71
2022/04/17 04:37:49;;;;;;;43.35;28.83;;;8.30;82.20;;;;;;4940827;29;20039;-71
2022/04/17 04:40:18;;;;;;;47.45;29.50;;;8.30;82.30;;;;;;4951256;29;20043;-71
2022/04/17 04:42:45;;;;;;;40.72;27.38;;;8.30;82.20;;;;;;4952765;28;20047;-71
2022/04/17 04:47:59;;;;;;;44.53;28.73;;;8.30;82.30;;;;;;4934639;29;20516;-71
2022/04/17 04:50:27;;;;;;;44.08;28.85;;;8.20;82.30;;;;;;4937121;28;20054;-71
2022/04/17 04:52:54;;;;;;;44.25;28.50;;;8.30;82.20;;;;;;4927304;29;20059;-71
2022/04/17 04:55:22;;;;;;;44.55;28.52;;;8.20;82.30;;;;;;4922488;29;20050;-71
2022/04/17 04:57:49;;;;;;;42.88;29.20;;;8.20;82.30;;;;;;4947485;29;20486;-71
2022/04/17 05:00:17;;;;;;;43.35;28.45;;;8.20;82.30;;;;;;4935282;29;20058;-71
2022/04/17 05:02:44;;;;;;;46.40;28.70;;;8.30;82.30;;;;;;4947858;28;20051;-71
2022/04/17 05:05:12;;;;;;;46.53;29.77;;;8.20;82.30;;;;;;4930727;29;20054;-71
2022/04/17 05:07:40;;;;;;;48.75;30.20;;;8.20;82.30;;;;;;4938245;29;20532;-71
2022/04/17 05:10:07;;;;;;;46.72;28.95;;;8.20;82.40;;;;;;4929439;29;20068;-71
2022/04/17 05:12:37;;;;;;;51.38;31.17;;;8.10;82.40;;;;;;4937183;29;20058;-71
2022/04/17 05:15:05;;;;;;;46.92;30.02;;;8.10;82.50;;;;;;4946751;29;20058;-71
2022/04/17 05:17:33;;;;;;;46.80;29.75;;;8.10;82.50;;;;;;4933533;28;20387;-71
2022/04/17 05:20:00;;;;;;;48.97;30.55;;;8.00;82.50;;;;;;4908906;29;20052;-71
2022/04/17 05:22:31;;;;;;;47.50;29.73;;;8.00;82.60;;;;;;4943225;28;20043;-71
2022/04/17 05:24:59;;;;;;;45.60;29.90;;;8.00;82.60;;;;;;4953279;28;20046;-71
2022/04/17 05:27:27;;;;;;;49.70;31.30;;;8.00;82.70;;;;;;4949144;29;20055;-71
2022/04/17 05:29:55;;;;;;;46.78;31.27;;;7.90;82.70;;;;;;4954336;29;20501;-72
2022/04/17 05:32:23;;;;;;;48.85;31.00;;;7.90;82.70;;;;;;4952470;29;20058;-72
2022/04/17 05:34:51;;;;;;;46.78;30.83;;;7.90;82.80;;;;;;4939641;29;20059;-71
2022/04/17 05:37:18;;;;;;;52.33;32.58;;;7.90;82.80;;;;;;4937101;29;20501;-72
2022/04/17 05:39:46;;;;;;;48.45;31.20;;;7.80;82.80;;;;;;4953121;28;20043;-71
2022/04/17 05:42:15;;;;;;;46.75;30.45;;;7.80;82.90;;;;;;4946017;29;20047;-71
2022/04/17 05:44:46;;;;;;;47.63;30.92;;;7.80;82.90;;;;;;4952545;29;20058;-72
2022/04/17 05:47:14;;;;;;;49.40;31.15;;;7.80;82.80;;;;;;4938461;29;20043;-71
2022/04/17 05:49:42;;;;;;;48.97;30.23;;;7.90;82.80;;;;;;4936285;29;20494;-72
2022/04/17 05:52:11;;;;;;;47.15;29.92;;;8.00;82.80;;;;;;4947491;28;20055;-71
2022/04/17 05:54:43;;;;;;;48.50;30.70;;;8.00;82.70;;;;;;4910510;29;20047;-72
2022/04/17 05:57:11;;;;;;;48.03;30.58;;;8.10;82.60;;;;;;4950333;28;20043;-71
2022/04/17 05:59:38;;;;;;;46.95;30.00;;;8.20;82.50;;;;;;4921739;29;20059;-71
2022/04/17 06:02:08;;;;;;;46.40;29.63;;;8.20;82.50;;;;;;4940276;29;20039;-72
2022/04/17 06:04:38;;;;;;;42.50;28.17;;;8.30;82.30;;;;;;4926904;29;20410;-71
2022/04/17 06:07:06;;;;;;;46.50;29.15;;;8.30;82.20;;;;;;4940251;29;20046;-71
2022/04/17 06:09:34;;;;;;;46.78;29.83;;;8.30;82.20;;;;;;4953239;28;20401;-71
2022/04/17 06:12:02;;;;;;;47.58;29.10;;;8.40;82.10;;;;;;4944426;29;20406;-71
2022/04/17 06:14:29;;;;;;;42.95;28.08;;;8.40;81.90;;;;;;4948542;29;20051;-72
2022/04/17 06:16:57;;;;;;;45.80;28.60;;;8.50;81.80;;;;;;4938585;29;20039;-72
2022/04/17 06:19:25;;;;;;;43.40;28.70;;;8.60;81.70;;;;;;4939829;29;20059;-72
2022/04/17 06:21:53;;;;;;;41.95;28.35;;;8.60;81.60;;;;;;4936268;29;20059;-71
2022/04/17 06:24:20;;;;;;;43.47;28.17;;;8.70;81.50;;;;;;4950027;29;20047;-71
2022/04/17 06:26:48;;;;;;;46.28;29.40;;;8.70;81.40;;;;;;4921715;29;20055;-71
2022/04/17 06:29:15;;;;;;;47.40;29.90;;;8.80;81.20;;;;;;4933838;29;20046;-71
2022/04/17 06:31:45;;;;;;;44.90;29.42;;;8.80;81.00;;;;;;4943410;29;20050;-72
2022/04/17 06:34:13;;;;;;;48.08;28.85;;;8.90;80.90;;;;;;4934071;29;20383;-71
2022/04/17 06:36:41;;;;;;;49.35;30.10;;;9.00;80.80;;;;;;4917853;28;20504;-71
2022/04/17 06:39:08;;;;;;;46.70;29.27;;;9.00;80.70;;;;;;4934560;29;20050;-71
2022/04/17 06:41:36;;;;;;;53.05;32.58;;;9.10;80.60;;;;;;4953199;29;20055;-71
2022/04/17 06:44:04;;;;;;;54.97;34.63;;;9.20;80.50;;;;;;4952401;29;20493;-71
2022/04/17 06:46:32;;;;;;;50.28;32.92;;;9.30;80.30;;;;;;4952070;28;20054;-71
2022/04/17 06:49:00;;;;;;;48.75;31.38;;;9.30;80.20;;;;;;4945612;29;20047;-71
2022/04/17 06:51:28;;;;;;;50.60;30.77;;;9.50;80.00;;;;;;4952321;28;20058;-71
2022/04/17 06:53:55;;;;;;;50.83;29.85;;;9.60;79.80;;;;;;4951773;29;20047;-71
2022/04/17 06:56:23;;;;;;;51.70;31.33;;;9.70;79.70;;;;;;4936061;29;20036;-71
2022/04/17 06:58:51;;;;;;;44.42;29.45;;;9.80;79.50;;;;;;4951812;29;20058;-71
2022/04/17 07:01:19;;;;;;;44.95;30.02;;;9.90;79.30;;;;;;4935271;29;20410;-71
2022/04/17 07:03:47;;;;;;;46.35;30.65;;;9.90;79.00;;;;;;4917295;29;20051;-71
2022/04/17 07:06:15;;;;;;;47.63;29.60;;;10.10;78.80;;;;;;4915741;29;20478;-71
2022/04/17 07:08:42;;;;;;;46.63;30.30;;;10.20;78.50;;;;;;4933502;29;20040;-71
2022/04/17 07:11:10;;;;;;;43.15;28.58;;;10.40;78.20;;;;;;4939320;29;20047;-71
2022/04/17 07:13:39;;;;;;;44.42;29.65;;;10.40;77.80;;;;;;4922423;29;20056;-71
2022/04/17 07:16:07;;;;;;;45.75;29.30;;;10.60;77.40;;;;;;4933372;29;20059;-71
2022/04/17 07:18:35;;;;;;;47.70;30.27;;;10.70;77.20;;;;;;4933228;29;20418;-71
2022/04/17 07:21:03;;;;;;;43.03;28.40;;;10.80;76.80;;;;;;4935862;29;20051;-71
2022/04/17 07:23:30;;;;;;;44.28;30.17;;;10.90;76.50;;;;;;4931804;29;20059;-71
2022/04/17 07:25:58;;;;;;;41.85;27.58;;;11.00;76.30;;;;;;4953282;28;20048;-71
2022/04/17 07:28:26;;;;;;;43.83;28.98;;;11.00;76.00;;;;;;4939072;29;20059;-71
2022/04/17 07:30:53;;;;;;;45.03;29.60;;;11.20;75.60;;;;;;4936825;29;20051;-71
2022/04/17 07:33:22;;;;;;;44.63;30.50;;;11.30;75.10;;;;;;4924602;29;20063;-71
2022/04/17 07:35:49;;;;;;;49.90;29.60;;;11.30;74.80;;;;;;4934071;29;20063;-71
2022/04/17 07:38:17;;;;;;;44.70;29.67;;;11.40;74.30;;;;;;4947975;29;20044;-71
2022/04/17 07:40:45;;;;;;;42.70;29.27;;;11.40;74.10;;;;;;4952386;29;20043;-71
2022/04/17 07:43:13;;;;;;;45.13;30.00;;;11.50;74.00;;;;;;4941683;28;20052;-71
2022/04/17 07:45:41;;;;;;;47.55;28.75;;;11.60;73.80;;;;;;4948141;28;20062;-71
2022/04/17 07:48:08;;;;;;;44.28;28.77;;;11.70;73.70;;;;;;4927604;29;20055;-72
2022/04/17 07:50:36;;;;;;;46.75;29.90;;;11.80;73.40;;;;;;4909401;29;20063;-70
2022/04/17 07:53:04;;;;;;;46.33;29.77;;;11.80;73.20;;;;;;4932403;29;20047;-71
2022/04/17 07:55:32;;;;;;;45.08;29.30;;;12.00;72.80;;;;;;4938050;29;20051;-72
2022/04/17 08:00:32;;;;;;;44.40;28.77;;;12.20;71.90;;;;;;4937323;29;20417;-72
2022/04/17 08:03:37;;;;;;;45.08;30.52;;;12.20;71.60;;;;;;4935992;29;20059;-72
2022/04/17 08:06:05;;;;;;;41.60;29.25;;;12.30;71.10;;;;;;4932625;29;20051;-72
2022/04/17 08:08:34;;;;;;;44.30;29.40;;;12.40;70.60;;;;;;4948085;29;20043;-72
2022/04/17 08:11:06;;;;;;;43.83;28.88;;;12.50;70.50;;;;;;4950892;28;20051;-72
2022/04/17 08:13:35;;;;;;;42.05;28.35;;;12.60;70.40;;;;;;4934172;29;20043;-72
2022/04/17 08:16:06;;;;;;;39.38;27.60;;;12.80;70.20;;;;;;4922638;29;20051;-72
2022/04/17 08:18:41;;;;;;;41.88;29.08;;;12.90;69.90;;;;;;4948578;29;20059;-72
2022/04/17 08:21:09;;;;;;;42.38;28.25;;;13.10;69.50;;;;;;4943793;29;20113;-71
2022/04/17 08:23:37;;;;;;;41.33;28.40;;;13.20;68.60;;;;;;4938563;29;20068;-70
2022/04/17 08:26:06;;;;;;;39.65;26.73;;;13.30;68.20;;;;;;4923525;29;20050;-71
2022/04/17 08:28:34;;;;;;;41.53;28.83;;;13.40;68.00;;;;;;4934021;29;20413;-71
2022/04/17 08:31:02;;;;;;;40.17;26.83;;;13.50;67.60;;;;;;4952036;28;20062;-70
2022/04/17 08:33:30;;;;;;;38.03;26.83;;;13.60;67.50;;;;;;4937915;29;20067;-70
2022/04/17 08:35:59;;;;;;;39.85;28.45;;;13.70;67.20;;;;;;4923410;29;20056;-70
2022/04/17 08:38:27;;;;;;;39.85;26.90;;;13.80;67.10;;;;;;4936387;29;20054;-71
2022/04/17 08:40:58;;;;;;;36.75;26.58;;;13.90;66.90;;;;;;4931128;29;20527;-71
2022/04/17 08:43:26;;;;;;;36.95;26.35;;;14.10;66.30;;;;;;4947900;28;20051;-71
2022/04/17 08:45:54;;;;;;;34.70;26.58;;;14.20;65.70;;;;;;4951673;28;20062;-71
2022/04/17 08:48:22;;;;;;;35.75;25.02;;;14.30;65.60;;;;;;4926113;29;20059;-72
2022/04/17 08:50:54;;;;;;;37.78;25.38;;;14.30;65.30;;;;;;4947061;29;20048;-71
2022/04/17 08:53:22;;;;;;;36.45;24.95;;;14.40;65.10;;;;;;4946149;28;20051;-71
2022/04/17 08:55:51;;;;;;;36.28;23.85;;;14.50;64.90;;;;;;4945425;29;20056;-70
2022/04/17 08:58:19;;;;;;;31.10;22.20;;;14.60;64.60;;;;;;4943759;28;20062;-72
2022/04/17 09:00:47;;;;;;;33.80;23.67;;;14.70;63.60;;;;;;4950233;29;20054;-70
2022/04/17 09:03:15;;;;;;;34.70;23.35;;;14.70;62.60;;;;;;4950536;29;20047;-72
2022/04/17 09:05:44;;;;;;;35.58;24.05;;;14.70;62.80;;;;;;4951844;29;20051;-70
2022/04/17 09:08:14;;;;;;;34.28;23.25;;;14.70;62.60;;;;;;4939005;29;20698;-71
2022/04/17 09:10:55;;;;;;;34.20;22.45;;;14.70;62.50;;;;;;4949772;29;20050;-71
2022/04/17 09:13:33;;;;;;;31.85;22.02;;;14.70;62.80;;;;;;4950036;28;20055;-88
2022/04/17 09:16:02;;;;;;;33.00;23.02;;;14.80;62.50;;;;;;4900610;29;20062;-72
2022/04/17 09:18:31;;;;;;;34.72;23.17;;;14.90;62.40;;;;;;4948952;29;20058;-72
2022/04/17 09:21:03;;;;;;;37.25;23.80;;;15.10;62.30;;;;;;4953267;29;20051;-71
2022/04/17 09:23:40;;;;;;;37.50;24.50;;;15.30;61.80;;;;;;4938035;29;20047;-71
2022/04/17 09:26:08;;;;;;;34.08;22.80;;;15.30;61.70;;;;;;4936571;29;20051;-70
2022/04/17 09:28:37;;;;;;;35.33;22.92;;;15.40;61.00;;;;;;4953977;28;20528;-70
2022/04/17 09:31:12;;;;;;;37.13;23.17;;;15.50;60.50;;;;;;4938490;29;20047;-72
2022/04/17 09:33:41;;;;;;;33.38;22.73;;;15.50;60.20;;;;;;4955106;29;20051;-71
2022/04/17 09:36:09;;;;;;;36.95;24.90;;;15.50;60.20;;;;;;4955247;29;20058;-71
2022/04/17 09:38:42;;;;;;;36.05;23.83;;;15.50;60.50;;;;;;4955201;28;20047;-72
2022/04/17 09:41:13;;;;;;;35.22;24.23;;;15.60;60.40;;;;;;4955182;29;20520;-71
2022/04/17 09:43:47;;;;;;;35.50;24.88;;;15.60;60.40;;;;;;4922341;29;20043;-71
2022/04/17 09:46:15;;;;;;;35.15;25.13;;;15.70;60.40;;;;;;4955047;29;20051;-71
2022/04/17 09:48:44;;;;;;;38.25;24.42;;;15.70;60.60;;;;;;4953593;29;20481;-72
2022/04/17 09:51:26;;;;;;;37.85;23.80;;;15.80;60.50;;;;;;4937990;29;20047;-71
2022/04/17 09:54:14;;;;;;;33.13;21.20;;;15.90;60.30;;;;;;4935877;29;20035;-71
2022/04/17 09:56:45;;;;;;;31.63;20.40;;;16.00;59.50;;;;;;4937002;29;20047;-72
2022/04/17 09:59:21;;;;;;;28.35;19.33;;;16.10;58.60;;;;;;4937285;29;20066;-71
2022/04/17 10:01:51;;;;;;;31.98;18.98;;;16.30;57.70;;;;;;4955067;29;20047;-72
2022/04/17 10:04:20;;;;;;;28.77;18.95;;;16.30;57.20;;;;;;4954545;29;20054;-72
2022/04/17 10:06:50;;;;;;;27.88;18.23;;;16.40;57.40;;;;;;4954023;28;20409;-72
2022/04/17 10:09:18;;;;;;;33.90;19.05;;;16.50;57.10;;;;;;4954605;28;20047;-72
2022/04/17 10:11:46;;;;;;;26.75;18.60;;;16.70;56.30;;;;;;4952661;29;20131;-71
2022/04/17 10:14:15;;;;;;;28.83;20.15;;;16.80;56.30;;;;;;4951981;29;20500;-72
2022/04/17 10:16:46;;;;;;;33.55;19.70;;;16.80;56.40;;;;;;4951472;29;20051;-72
2022/04/17 10:19:19;;;;;;;28.63;19.88;;;16.80;56.00;;;;;;4951710;29;20047;-72
2022/04/17 10:21:49;;;;;;;30.15;20.02;;;16.80;56.20;;;;;;4952656;28;20070;-71
2022/04/17 10:24:18;;;;;;;31.60;20.35;;;16.80;56.30;;;;;;4935403;29;20062;-72
2022/04/17 10:26:53;;;;;;;35.00;21.42;;;16.90;56.00;;;;;;4921174;29;20055;-72
2022/04/17 10:29:43;;;;;;;33.05;20.67;;;17.00;56.20;;;;;;4937008;29;20054;-71
2022/04/17 10:32:33;;;;;;;28.95;20.60;;;17.10;56.10;;;;;;4936503;28;20055;-71
2022/04/17 10:35:13;;;;;;;27.63;19.25;;;17.20;56.30;;;;;;4954324;28;20051;-71
2022/04/17 10:38:22;;;;;;;31.53;20.50;;;17.30;56.10;;;;;;4938108;29;20048;-72
2022/04/17 10:41:01;;;;;;;30.80;20.42;;;17.60;55.40;;;;;;4937340;29;20059;-72
2022/04/17 10:43:34;;;;;;;30.98;21.20;;;17.80;54.90;;;;;;4954403;28;20398;-71
2022/04/17 10:46:18;;;;;;;31.15;20.15;;;17.90;54.20;;;;;;4937012;29;20055;-71
2022/04/17 10:49:01;;;;;;;31.50;21.65;;;18.00;54.10;;;;;;4954247;29;20047;-71
2022/04/17 10:51:31;;;;;;;33.53;21.65;;;18.10;53.90;;;;;;4954486;28;20217;-71
2022/04/17 10:54:18;;;;;;;32.22;21.95;;;18.10;53.40;;;;;;4953992;28;20047;-72
2022/04/17 10:56:55;;;;;;;35.53;22.33;;;18.10;53.80;;;;;;4954217;28;20055;-72
2022/04/17 10:59:33;;;;;;;34.80;22.63;;;18.20;53.50;;;;;;4936525;28;20536;-71
2022/04/17 11:02:05;;;;;;;34.63;21.42;;;18.30;53.50;;;;;;4936945;29;20120;-72
2022/04/17 11:04:55;;;;;;;29.85;20.50;;;18.40;53.40;;;;;;4954001;28;20058;-72
2022/04/17 11:07:28;;;;;;;31.52;21.15;;;18.50;53.10;;;;;;4954133;28;20504;-71
2022/04/17 11:10:10;;;;;;;30.95;20.73;;;18.50;52.60;;;;;;4954111;28;20401;-72
2022/04/17 11:12:51;;;;;;;30.85;20.17;;;18.50;52.60;;;;;;4937445;29;20051;-71
2022/04/17 11:15:18;;;;;;;32.83;21.10;;;18.50;52.70;;;;;;4953694;28;20050;-72
2022/04/17 11:17:47;;;;;;;28.00;20.00;;;18.60;52.90;;;;;;4936916;29;20413;-72
2022/04/17 11:20:15;;;;;;;28.15;20.25;;;18.80;52.80;;;;;;4952286;28;20051;-71
2022/04/17 11:22:43;;;;;;;28.67;20.13;;;19.00;52.60;;;;;;4935736;29;20078;-71
2022/04/17 11:25:12;;;;;;;35.15;19.58;;;19.30;51.90;;;;;;4951066;29;20056;-71
2022/04/17 11:27:42;;;;;;;26.92;18.15;;;19.50;51.20;;;;;;4951371;28;20070;-71
2022/04/17 11:30:32;;;;;;;29.75;18.85;;;19.80;49.70;;;;;;4952770;28;20043;-71
2022/04/17 11:33:01;;;;;;;24.48;18.48;;;19.70;49.90;;;;;;4935645;29;20078;-71
2022/04/17 11:35:30;;;;;;;25.20;17.67;;;19.70;49.50;;;;;;4952917;29;20047;-72
2022/04/17 11:38:02;;;;;;;27.88;18.40;;;19.70;49.40;;;;;;4953844;28;20516;-72
2022/04/17 11:40:33;;;;;;;24.90;17.05;;;19.80;49.80;;;;;;4923219;29;20516;-72
2022/04/17 11:43:11;;;;;;;21.63;15.15;;;20.00;49.30;;;;;;4956078;28;20055;-72
2022/04/17 11:45:40;;;;;;;23.92;16.02;;;20.30;48.30;;;;;;4956130;28;20063;-72
2022/04/17 11:48:13;;;;;;;19.83;13.50;;;20.40;47.60;;;;;;4954301;29;20051;-71
2022/04/17 11:50:42;;;;;;;15.45;11.25;;;20.60;47.20;;;;;;4954476;29;20401;-72
2022/04/17 11:53:17;;;;;;;15.40;10.38;;;20.80;43.70;;;;;;4954583;29;20051;-72
2022/04/17 11:55:46;;;;;;;13.88;9.98;;;20.80;42.80;;;;;;4954218;29;20416;-71
2022/04/17 11:58:23;;;;;;;14.73;10.57;;;20.80;42.10;;;;;;4953090;29;20416;-72
2022/04/17 12:00:55;;;;;;;15.10;9.82;;;20.80;41.40;;;;;;4954139;29;20683;-72
2022/04/17 12:03:35;;;;;;;16.02;10.85;;;20.80;41.90;;;;;;4955755;29;20397;-71
2022/04/17 12:06:06;;;;;;;12.85;9.50;;;20.80;41.60;;;;;;4955877;29;20047;-71
2022/04/17 12:08:35;;;;;;;17.33;10.60;;;20.90;41.70;;;;;;4955407;28;20051;-72
2022/04/17 12:11:08;;;;;;;15.93;10.80;;;21.10;41.80;;;;;;4955201;28;20519;-71
2022/04/17 12:13:36;;;;;;;15.60;10.80;;;21.30;41.70;;;;;;4955799;29;20043;-72
2022/04/17 12:16:06;;;;;;;17.88;11.45;;;21.40;41.90;;;;;;4954746;28;20517;-71
2022/04/17 12:18:34;;;;;;;15.03;11.20;;;21.70;40.20;;;;;;4916443;29;1144171;-72
2022/04/17 12:21:03;;;;;;;14.27;10.35;;;21.80;40.70;;;;;;4956808;28;20051;-71
2022/04/17 12:23:32;;;;;;;16.08;10.98;;;21.80;41.00;;;;;;4956645;28;20508;-71
2022/04/17 12:26:09;;;;;;;16.05;10.25;;;21.90;39.90;;;;;;4956710;28;20493;-72
2022/04/17 12:28:45;;;;;;;13.18;9.55;;;21.90;39.30;;;;;;4956369;29;20054;-71
2022/04/17 12:31:14;;;;;;;14.27;10.48;;;22.10;39.80;;;;;;4955335;28;20051;-71
2022/04/17 12:33:42;;;;;;;12.68;9.52;;;22.20;37.50;;;;;;4939751;29;20051;-71
2022/04/17 12:36:12;;;;;;;13.65;9.27;;;22.20;38.10;;;;;;4956475;29;20058;-71
2022/04/17 12:38:43;;;;;;;17.20;10.85;;;22.30;38.60;;;;;;4956508;28;20058;-71
2022/04/17 12:41:28;;;;;;;14.18;10.13;;;22.50;38.20;;;;;;4956232;28;20047;-71
2022/04/17 12:43:56;;;;;;;17.13;11.65;;;22.70;37.90;;;;;;4939262;29;20047;-71
2022/04/17 12:46:32;;;;;;;15.57;11.25;;;22.80;38.00;;;;;;4938981;29;20058;-70
2022/04/17 12:49:08;;;;;;;14.60;10.85;;;22.80;38.80;;;;;;4956451;28;20039;-71
2022/04/17 12:51:38;;;;;;;16.05;11.07;;;22.90;38.90;;;;;;4939004;28;20059;-70
2022/04/17 12:54:12;;;;;;;14.18;10.93;;;23.10;39.10;;;;;;4955210;29;20047;-71
2022/04/17 12:56:40;;;;;;;15.48;11.57;;;23.40;38.70;;;;;;4956061;29;20047;-71
2022/04/17 12:59:09;;;;;;;13.48;10.38;;;23.50;38.10;;;;;;4956209;29;20043;-71
2022/04/17 13:01:45;;;;;;;12.45;9.80;;;23.70;38.20;;;;;;4955896;28;20086;-71